createdAt,value
2022-11-27T00:01:11.666Z,15.53
2022-11-27T00:03:39.953Z,15.80
2022-11-27T00:06:07.937Z,15.30
2022-11-27T00:08:34.558Z,14.63
2022-11-27T00:11:09.683Z,15.43
2022-11-27T00:13:36.467Z,15.80
2022-11-27T00:16:04.576Z,14.67
2022-11-27T00:18:31.365Z,14.67
2022-11-27T00:21:04.072Z,14.53
2022-11-27T00:23:30.719Z,15.27
2022-11-27T00:25:57.303Z,15.70
2022-11-27T00:28:23.898Z,15.07
2022-11-27T00:30:50.499Z,13.77
2022-11-27T00:33:17.261Z,14.60
2022-11-27T00:35:43.967Z,14.00
2022-11-27T00:38:10.542Z,13.33
2022-11-27T00:40:37.117Z,14.10
2022-11-27T00:43:03.761Z,13.07
2022-11-27T00:45:30.327Z,14.07
2022-11-27T00:47:56.907Z,14.70
2022-11-27T00:50:23.531Z,13.37
2022-11-27T00:52:50.117Z,13.30
2022-11-27T00:55:16.800Z,13.53
2022-11-27T00:57:43.421Z,12.73
2022-11-27T01:00:10.623Z,13.47
2022-11-27T01:02:37.221Z,13.60
2022-11-27T01:05:04.014Z,11.97
2022-11-27T01:07:30.619Z,12.20
2022-11-27T01:09:57.224Z,13.20
2022-11-27T01:12:23.816Z,13.63
2022-11-27T01:14:50.490Z,13.37
2022-11-27T01:17:18.287Z,12.77
2022-11-27T01:19:45.019Z,13.10
2022-11-27T01:22:11.606Z,12.37
2022-11-27T01:24:38.598Z,13.17
2022-11-27T01:27:05.513Z,12.43
2022-11-27T01:29:32.091Z,12.57
2022-11-27T01:31:58.670Z,11.93
2022-11-27T01:34:25.252Z,11.43
2022-11-27T01:36:51.823Z,12.50
2022-11-27T01:39:20.547Z,11.33
2022-11-27T01:41:48.130Z,12.00
2022-11-27T01:44:23.853Z,11.63
2022-11-27T01:46:52.985Z,11.90
2022-11-27T01:49:28.913Z,11.53
2022-11-27T01:52:19.823Z,10.77
2022-11-27T01:55:05.317Z,10.70
2022-11-27T01:57:39.815Z,11.43
2022-11-27T02:00:09.248Z,10.70
2022-11-27T02:02:43.037Z,10.57
2022-11-27T02:05:14.392Z,10.63
2022-11-27T02:07:41.414Z,9.33
2022-11-27T02:10:08.408Z,10.33
2022-11-27T02:12:40.953Z,10.40
2022-11-27T02:15:14.462Z,10.10
2022-11-27T02:18:06.944Z,9.60
2022-11-27T02:21:09.474Z,10.53
2022-11-27T02:24:20.879Z,9.20
2022-11-27T02:26:58.471Z,9.80
2022-11-27T02:29:27.606Z,10.47
2022-11-27T02:31:58.948Z,9.70
2022-11-27T02:34:39.235Z,9.47
2022-11-27T02:37:33.562Z,9.70
2022-11-27T02:40:06.839Z,9.77
2022-11-27T02:42:40.876Z,10.10
2022-11-27T02:45:14.272Z,10.63
2022-11-27T02:47:44.539Z,10.20
2022-11-27T02:50:16.422Z,9.77
2022-11-27T02:52:44.260Z,10.03
2022-11-27T02:55:16.001Z,10.60
2022-11-27T02:57:44.047Z,9.80
2022-11-27T03:00:11.808Z,9.83
2022-11-27T03:02:49.644Z,10.23
2022-11-27T03:05:20.427Z,10.67
2022-11-27T03:07:54.044Z,9.90
2022-11-27T03:10:34.093Z,9.67
2022-11-27T03:13:02.619Z,9.43
2022-11-27T03:15:46.241Z,9.40
2022-11-27T03:18:25.670Z,9.90
2022-11-27T03:21:00.998Z,9.43
2022-11-27T03:23:28.163Z,8.97
2022-11-27T03:25:54.775Z,9.40
2022-11-27T03:28:21.952Z,9.20
2022-11-27T03:30:48.709Z,9.40
2022-11-27T03:33:15.531Z,8.37
2022-11-27T03:35:42.116Z,8.60
2022-11-27T03:38:08.778Z,8.97
2022-11-27T03:40:56.970Z,8.83
2022-11-27T03:43:30.415Z,9.40
2022-11-27T03:46:07.353Z,9.23
2022-11-27T03:48:48.582Z,9.07
2022-11-27T03:51:32.928Z,8.93
2022-11-27T03:54:07.266Z,9.47
2022-11-27T03:56:56.121Z,11.53
2022-11-27T03:59:25.321Z,10.00
2022-11-27T04:01:52.089Z,9.30
2022-11-27T04:04:18.910Z,9.33
2022-11-27T04:06:45.626Z,9.60
2022-11-27T04:09:12.203Z,9.87
2022-11-27T04:11:38.791Z,9.47
2022-11-27T04:14:05.806Z,9.73
2022-11-27T04:16:32.467Z,10.40
2022-11-27T04:18:59.174Z,9.90
2022-11-27T04:21:25.838Z,8.70
2022-11-27T04:23:52.423Z,9.40
2022-11-27T04:26:19.022Z,9.57
2022-11-27T04:28:45.589Z,8.90
2022-11-27T04:31:12.311Z,8.53
2022-11-27T04:33:38.934Z,9.30
2022-11-27T04:36:05.996Z,9.10
2022-11-27T04:38:32.579Z,9.40
2022-11-27T04:40:59.174Z,9.53
2022-11-27T04:43:25.794Z,9.20
2022-11-27T04:45:52.378Z,9.67
2022-11-27T04:48:18.973Z,9.47
2022-11-27T04:50:45.995Z,10.30
2022-11-27T04:53:12.723Z,9.40
2022-11-27T04:55:39.294Z,10.00
2022-11-27T04:58:05.942Z,10.17
2022-11-27T05:00:32.783Z,9.60
2022-11-27T05:02:59.548Z,10.47
2022-11-27T05:05:36.348Z,11.13
2022-11-27T05:08:03.034Z,11.07
2022-11-27T05:10:29.673Z,10.53
2022-11-27T05:12:56.257Z,11.07
2022-11-27T05:15:22.892Z,11.60
2022-11-27T05:17:49.519Z,11.67
2022-11-27T05:20:16.326Z,11.90
2022-11-27T05:22:44.134Z,12.97
2022-11-27T05:25:10.780Z,12.30
2022-11-27T05:27:37.442Z,12.20
2022-11-27T05:30:04.376Z,13.43
2022-11-27T05:32:30.979Z,13.73
2022-11-27T05:34:57.540Z,13.40
2022-11-27T05:37:24.801Z,13.90
2022-11-27T05:39:51.375Z,13.30
2022-11-27T05:42:18.053Z,13.30
2022-11-27T05:44:44.844Z,14.17
2022-11-27T05:47:11.437Z,12.93
2022-11-27T05:49:39.104Z,12.73
2022-11-27T05:52:05.743Z,12.63
2022-11-27T05:54:32.310Z,12.00
2022-11-27T05:56:58.897Z,13.03
2022-11-27T05:59:25.477Z,12.40
2022-11-27T06:01:52.269Z,12.37
2022-11-27T06:04:19.269Z,12.67
2022-11-27T06:06:45.869Z,12.20
2022-11-27T06:09:13.724Z,12.03
2022-11-27T06:11:41.427Z,11.53
2022-11-27T06:14:11.338Z,13.40
2022-11-27T06:16:38.224Z,13.97
2022-11-27T06:19:04.884Z,12.77
2022-11-27T06:21:31.481Z,11.83
2022-11-27T06:23:58.187Z,13.47
2022-11-27T06:26:28.151Z,13.17
2022-11-27T06:28:56.783Z,11.67
2022-11-27T06:31:26.301Z,12.40
2022-11-27T06:33:55.381Z,11.80
2022-11-27T06:36:28.489Z,12.33
2022-11-27T06:38:55.470Z,12.20
2022-11-27T06:41:24.530Z,12.03
2022-11-27T06:43:51.251Z,11.33
2022-11-27T06:46:20.391Z,12.17
2022-11-27T06:48:49.042Z,12.27
2022-11-27T06:51:18.519Z,12.37
2022-11-27T06:53:45.305Z,11.73
2022-11-27T06:56:14.151Z,12.53
2022-11-27T06:58:41.675Z,12.60
2022-11-27T07:01:11.891Z,12.27
2022-11-27T07:03:39.095Z,11.60
2022-11-27T07:06:08.488Z,11.93
2022-11-27T07:08:35.688Z,13.97
2022-11-27T07:11:07.491Z,14.00
2022-11-27T07:13:34.243Z,12.63
2022-11-27T07:16:05.413Z,12.97
2022-11-27T07:18:36.824Z,12.67
2022-11-27T07:21:03.607Z,12.60
2022-11-27T07:23:30.183Z,11.40
2022-11-27T07:25:56.904Z,11.67
2022-11-27T07:28:23.657Z,12.07
2022-11-27T07:30:59.825Z,12.10
2022-11-27T07:33:26.865Z,11.93
2022-11-27T07:36:10.566Z,12.73
2022-11-27T07:38:37.143Z,11.40
2022-11-27T07:41:04.875Z,12.10
2022-11-27T07:43:32.984Z,11.07
2022-11-27T07:46:04.384Z,10.87
2022-11-27T07:48:31.547Z,11.77
2022-11-27T07:50:58.445Z,11.53
2022-11-27T07:53:25.044Z,11.77
2022-11-27T07:55:51.633Z,11.50
2022-11-27T07:58:18.239Z,13.43
2022-11-27T08:00:44.936Z,11.57
2022-11-27T08:03:11.595Z,11.67
2022-11-27T08:05:38.183Z,10.67
2022-11-27T08:08:05.159Z,11.23
2022-11-27T08:10:35.266Z,10.77
2022-11-27T08:13:02.022Z,11.40
2022-11-27T08:15:28.640Z,10.87
2022-11-27T08:17:55.245Z,10.37
2022-11-27T08:20:21.952Z,10.87
2022-11-27T08:22:48.879Z,11.23
2022-11-27T08:25:15.847Z,11.03
2022-11-27T08:27:42.907Z,10.20
2022-11-27T08:30:10.220Z,9.67
2022-11-27T08:32:40.860Z,9.93
2022-11-27T08:35:08.203Z,10.17
2022-11-27T08:37:35.474Z,10.83
2022-11-27T08:40:02.578Z,10.37
2022-11-27T08:42:29.852Z,10.10
2022-11-27T08:44:56.538Z,10.20
2022-11-27T08:47:23.291Z,9.07
2022-11-27T08:49:50.161Z,8.93
2022-11-27T08:52:16.942Z,9.43
2022-11-27T08:54:43.607Z,8.87
2022-11-27T08:57:10.278Z,9.10
2022-11-27T08:59:36.871Z,8.67
2022-11-27T09:02:03.466Z,8.50
2022-11-27T09:04:30.136Z,8.83
2022-11-27T09:06:58.729Z,9.07
2022-11-27T09:09:25.577Z,9.17
2022-11-27T09:11:54.624Z,9.90
2022-11-27T09:14:21.259Z,8.87
2022-11-27T09:16:48.037Z,8.87
2022-11-27T09:19:14.843Z,8.27
2022-11-27T09:21:41.464Z,8.10
2022-11-27T09:24:09.431Z,8.60
2022-11-27T09:26:36.071Z,9.50
2022-11-27T09:29:02.728Z,9.43
2022-11-27T09:31:29.498Z,8.20
2022-11-27T09:33:58.343Z,9.37
2022-11-27T09:36:26.046Z,8.20
2022-11-27T09:38:53.680Z,8.90
2022-11-27T09:41:35.871Z,8.20
2022-11-27T09:44:23.423Z,8.30
2022-11-27T09:46:51.190Z,8.33
2022-11-27T09:49:25.528Z,8.80
2022-11-27T09:52:05.450Z,8.40
2022-11-27T09:54:57.676Z,8.50
2022-11-27T09:57:32.163Z,7.70
2022-11-27T10:00:03.228Z,7.93
2022-11-27T10:02:33.720Z,8.23
2022-11-27T10:05:13.734Z,7.80
2022-11-27T10:08:11.883Z,8.40
2022-11-27T10:10:46.857Z,8.13
2022-11-27T10:13:47.369Z,8.20
2022-11-27T10:16:20.234Z,8.60
2022-11-27T10:18:53.473Z,8.30
2022-11-27T10:21:45.496Z,8.27
2022-11-27T10:24:42.493Z,8.07
2022-11-27T10:27:34.184Z,9.07
2022-11-27T10:30:03.517Z,7.90
2022-11-27T10:32:54.747Z,10.43
2022-11-27T10:35:22.260Z,8.80
2022-11-27T10:38:07.166Z,8.63
2022-11-27T10:41:05.158Z,8.70
2022-11-27T10:43:32.200Z,8.40
2022-11-27T10:46:10.154Z,8.23
2022-11-27T10:48:36.959Z,8.60
2022-11-27T10:51:03.752Z,8.30
2022-11-27T10:53:38.282Z,9.00
2022-11-27T10:56:15.429Z,7.97
2022-11-27T10:58:56.040Z,7.90
2022-11-27T11:01:24.421Z,7.87
2022-11-27T11:04:14.227Z,8.33
2022-11-27T11:06:50.801Z,8.37
2022-11-27T11:09:22.790Z,8.40
2022-11-27T11:11:49.459Z,8.47
2022-11-27T11:14:24.413Z,8.53
2022-11-27T11:16:52.986Z,10.47
2022-11-27T11:19:33.420Z,9.37
2022-11-27T11:22:04.381Z,8.67
2022-11-27T11:24:33.500Z,8.20
2022-11-27T11:27:04.391Z,8.57
2022-11-27T11:29:36.076Z,8.27
2022-11-27T11:32:10.843Z,8.57
2022-11-27T11:34:56.220Z,8.40
2022-11-27T11:37:27.514Z,8.07
2022-11-27T11:40:16.180Z,8.10
2022-11-27T11:42:58.729Z,7.83
2022-11-27T11:45:30.011Z,8.10
2022-11-27T11:48:23.992Z,8.27
2022-11-27T11:50:57.714Z,7.60
2022-11-27T11:53:45.401Z,8.30
2022-11-27T11:56:29.243Z,8.20
2022-11-27T11:59:10.514Z,8.00
2022-11-27T12:02:04.214Z,8.07
2022-11-27T12:05:02.782Z,7.37
2022-11-27T12:07:52.412Z,7.93
2022-11-27T12:10:33.044Z,7.80
2022-11-27T12:13:04.558Z,7.90
2022-11-27T12:15:39.464Z,8.00
2022-11-27T12:18:18.224Z,7.70
2022-11-27T12:21:17.749Z,7.70
2022-11-27T12:24:19.582Z,7.73
2022-11-27T12:26:52.859Z,7.13
2022-11-27T12:29:57.105Z,6.83
2022-11-27T12:33:00.719Z,7.80
2022-11-27T12:35:43.125Z,7.90
2022-11-27T12:38:15.186Z,8.03
2022-11-27T12:41:02.187Z,6.83
2022-11-27T12:43:36.007Z,7.13
2022-11-27T12:46:46.816Z,7.63
2022-11-27T12:49:27.720Z,8.07
2022-11-27T12:52:12.895Z,8.60
2022-11-27T12:54:50.633Z,7.40
2022-11-27T12:57:27.246Z,7.53
2022-11-27T12:59:55.525Z,7.60
2022-11-27T13:02:38.221Z,7.27
2022-11-27T13:05:09.054Z,7.37
2022-11-27T13:07:48.196Z,7.30
2022-11-27T13:10:26.876Z,8.27
2022-11-27T13:13:09.532Z,7.00
2022-11-27T13:15:57.658Z,6.87
2022-11-27T13:18:33.596Z,7.60
2022-11-27T13:21:04.200Z,7.90
2022-11-27T13:23:32.428Z,6.90
2022-11-27T13:26:05.973Z,7.50
2022-11-27T13:28:42.579Z,8.07
2022-11-27T13:31:20.201Z,10.63
2022-11-27T13:33:47.432Z,9.10
2022-11-27T13:36:39.334Z,7.53
2022-11-27T13:39:06.939Z,7.33
2022-11-27T13:41:43.664Z,6.97
2022-11-27T13:44:28.597Z,6.93
2022-11-27T13:47:00.159Z,7.50
2022-11-27T13:49:37.907Z,6.80
2022-11-27T13:52:14.334Z,7.40
2022-11-27T13:54:53.955Z,7.47
2022-11-27T13:57:21.983Z,7.17
2022-11-27T14:00:10.110Z,7.70
2022-11-27T14:02:47.563Z,7.03
2022-11-27T14:05:17.227Z,9.60
2022-11-27T14:07:48.240Z,8.60
2022-11-27T14:10:26.818Z,11.30
2022-11-27T14:13:08.248Z,8.83
2022-11-27T14:15:37.291Z,26.90
2022-11-27T14:18:10.194Z,7.30
2022-11-27T14:20:47.730Z,12.43
2022-11-27T14:23:14.497Z,7.27
2022-11-27T14:25:41.535Z,11.60
2022-11-27T14:28:21.803Z,6.50
2022-11-27T14:30:57.137Z,7.67
2022-11-27T14:33:33.163Z,6.97
2022-11-27T14:36:22.236Z,6.53
2022-11-27T14:38:50.151Z,6.80
2022-11-27T14:41:23.461Z,7.23
2022-11-27T14:44:04.368Z,6.13
2022-11-27T14:46:33.930Z,6.93
2022-11-27T14:49:01.029Z,7.40
2022-11-27T14:51:30.701Z,7.40
2022-11-27T14:54:01.162Z,7.10
2022-11-27T14:56:37.079Z,9.27
2022-11-27T14:59:04.303Z,7.10
2022-11-27T15:01:36.502Z,6.43
2022-11-27T15:04:05.914Z,6.47
2022-11-27T15:06:37.571Z,8.30
2022-11-27T15:09:30.282Z,8.13
2022-11-27T15:11:56.784Z,7.87
2022-11-27T15:14:26.768Z,7.23
2022-11-27T15:16:54.253Z,7.37
2022-11-27T15:19:32.709Z,6.93
2022-11-27T15:21:59.755Z,7.17
2022-11-27T15:24:29.465Z,6.83
2022-11-27T15:27:15.516Z,7.57
2022-11-27T15:30:01.894Z,6.33
2022-11-27T15:32:45.660Z,6.93
2022-11-27T15:35:15.109Z,7.30
2022-11-27T15:37:42.184Z,7.53
2022-11-27T15:40:38.577Z,7.27
2022-11-27T15:43:16.063Z,7.50
2022-11-27T15:45:44.219Z,7.00
2022-11-27T15:48:16.698Z,6.97
2022-11-27T15:50:48.378Z,7.13
2022-11-27T15:53:18.296Z,7.27
2022-11-27T15:55:44.997Z,6.80
2022-11-27T15:58:11.658Z,6.93
2022-11-27T16:00:39.635Z,7.00
2022-11-27T16:03:06.346Z,7.13
2022-11-27T16:05:32.954Z,6.87
2022-11-27T16:08:00.801Z,7.13
2022-11-27T16:10:27.560Z,7.97
2022-11-27T16:12:59.240Z,7.43
2022-11-27T16:15:28.818Z,7.20
2022-11-27T16:17:59.416Z,7.63
2022-11-27T16:20:27.043Z,6.93
2022-11-27T16:22:54.036Z,6.33
2022-11-27T16:25:20.698Z,6.50
2022-11-27T16:27:47.393Z,6.50
2022-11-27T16:30:14.189Z,6.60
2022-11-27T16:32:41.741Z,6.60
2022-11-27T16:35:08.587Z,5.93
2022-11-27T16:37:35.578Z,6.00
2022-11-27T16:40:03.472Z,6.17
2022-11-27T16:42:30.145Z,6.30
2022-11-27T16:44:57.199Z,6.43
2022-11-27T16:47:23.811Z,6.87
2022-11-27T16:49:50.626Z,7.33
2022-11-27T16:52:17.518Z,7.13
2022-11-27T16:54:44.381Z,6.97
2022-11-27T16:57:11.125Z,7.00
2022-11-27T16:59:38.296Z,6.90
2022-11-27T17:02:10.564Z,7.07
2022-11-27T17:04:37.209Z,7.70
2022-11-27T17:07:06.580Z,7.30
2022-11-27T17:09:33.225Z,7.63
2022-11-27T17:11:59.837Z,7.40
2022-11-27T17:14:27.524Z,7.33
2022-11-27T17:16:54.239Z,7.13
2022-11-27T17:19:23.958Z,8.17
2022-11-27T17:21:50.800Z,7.70
2022-11-27T17:24:17.651Z,7.63
2022-11-27T17:26:46.477Z,8.47
2022-11-27T17:29:15.365Z,8.70
2022-11-27T17:31:42.778Z,8.57
2022-11-27T17:34:12.426Z,10.20
2022-11-27T17:36:41.912Z,8.13
2022-11-27T17:39:10.854Z,9.10
2022-11-27T17:41:39.712Z,9.47
2022-11-27T17:44:07.345Z,8.27
2022-11-27T17:46:34.758Z,8.40
2022-11-27T17:49:05.737Z,7.73
2022-11-27T17:51:35.828Z,8.67
2022-11-27T17:54:03.796Z,9.17
2022-11-27T17:56:32.142Z,7.87
2022-11-27T17:58:59.849Z,8.27
2022-11-27T18:01:28.990Z,9.43
2022-11-27T18:03:59.693Z,8.87
2022-11-27T18:06:27.545Z,9.03
2022-11-27T18:08:56.435Z,12.07
2022-11-27T18:11:26.084Z,9.53
2022-11-27T18:13:52.703Z,9.40
2022-11-27T18:16:28.930Z,9.63
2022-11-27T18:18:57.594Z,8.80
2022-11-27T18:21:27.005Z,9.17
2022-11-27T18:24:21.885Z,9.00
2022-11-27T18:29:27.684Z,9.03
2022-11-27T18:31:54.341Z,9.60
2022-11-27T18:34:21.030Z,9.23
2022-11-27T18:36:47.710Z,9.27
2022-11-27T18:39:14.385Z,9.17
2022-11-27T18:41:41.168Z,9.03
2022-11-27T18:44:08.586Z,9.03
2022-11-27T18:46:35.407Z,9.30
2022-11-27T18:49:05.611Z,9.37
2022-11-27T18:51:33.619Z,9.50
2022-11-27T18:54:00.210Z,9.90
2022-11-27T18:56:36.073Z,9.27
2022-11-27T18:59:05.906Z,9.63
2022-11-27T19:01:41.498Z,8.77
2022-11-27T19:04:11.829Z,8.23
2022-11-27T19:06:41.984Z,8.80
2022-11-27T19:09:10.925Z,9.17
2022-11-27T19:11:38.753Z,9.23
2022-11-27T19:14:06.304Z,8.63
2022-11-27T19:16:45.534Z,8.83
2022-11-27T19:19:52.193Z,9.60
2022-11-27T19:22:01.148Z,9.20
2022-11-27T19:24:28.183Z,9.77
2022-11-27T19:26:55.008Z,8.40
2022-11-27T19:29:21.774Z,9.00
2022-11-27T19:31:48.519Z,8.33
2022-11-27T19:34:15.155Z,8.37
2022-11-27T19:36:41.946Z,8.80
2022-11-27T19:39:14.031Z,8.77
2022-11-27T19:41:42.521Z,8.70
2022-11-27T19:44:11.219Z,8.77
2022-11-27T19:46:39.189Z,9.20
2022-11-27T19:49:16.993Z,8.57
2022-11-27T19:51:44.648Z,9.07
2022-11-27T19:54:13.924Z,9.00
2022-11-27T19:56:42.377Z,9.03
2022-11-27T19:59:10.735Z,9.30
2022-11-27T20:01:40.175Z,8.60
2022-11-27T20:04:07.839Z,8.70
2022-11-27T20:06:34.578Z,8.30
2022-11-27T20:09:03.979Z,8.37
2022-11-27T20:11:34.845Z,8.23
2022-11-27T20:14:04.728Z,8.00
2022-11-27T20:16:33.698Z,8.10
2022-11-27T20:19:02.104Z,8.30
2022-11-27T20:21:28.766Z,8.50
2022-11-27T20:23:57.022Z,8.23
2022-11-27T20:26:25.528Z,8.57
2022-11-27T20:28:53.395Z,8.67
2022-11-27T20:31:23.810Z,7.87
2022-11-27T20:33:51.836Z,8.33
2022-11-27T20:36:22.026Z,8.20
2022-11-27T20:38:50.057Z,8.37
2022-11-27T20:41:19.588Z,8.00
2022-11-27T20:43:50.651Z,8.70
2022-11-27T20:46:18.215Z,8.60
2022-11-27T20:48:46.747Z,8.50
2022-11-27T20:51:16.435Z,7.60
2022-11-27T20:53:45.494Z,8.20
2022-11-27T20:56:13.930Z,7.17
2022-11-27T20:58:42.456Z,7.60
2022-11-27T21:01:33.922Z,8.00
2022-11-27T21:04:04.322Z,8.17
2022-11-27T21:06:32.020Z,7.53
2022-11-27T21:09:03.868Z,9.30
2022-11-27T21:11:32.088Z,10.33
2022-11-27T21:14:02.494Z,9.20
2022-11-27T21:16:32.524Z,8.43
2022-11-27T21:19:03.343Z,13.93
2022-11-27T21:21:31.270Z,8.50
2022-11-27T21:23:59.720Z,8.77
2022-11-27T21:26:27.669Z,8.23
2022-11-27T21:28:54.660Z,8.57
2022-11-27T21:31:24.705Z,9.30
2022-11-27T21:34:03.869Z,8.67
2022-11-27T21:36:36.766Z,9.03
2022-11-27T21:39:07.924Z,8.60
2022-11-27T21:41:35.883Z,10.37
2022-11-27T21:44:03.755Z,8.63
2022-11-27T21:46:30.960Z,9.30
2022-11-27T21:49:00.097Z,8.83
2022-11-27T21:51:28.333Z,8.60
2022-11-27T21:53:57.945Z,8.83
2022-11-27T21:56:29.054Z,8.77
2022-11-27T21:58:56.283Z,8.90
2022-11-27T22:01:24.704Z,8.57
2022-11-27T22:03:54.103Z,9.10
2022-11-27T22:06:22.055Z,9.10
2022-11-27T22:08:50.071Z,9.53
2022-11-27T22:11:23.010Z,11.73
2022-11-27T22:13:49.956Z,9.13
2022-11-27T22:16:20.002Z,8.60
2022-11-27T22:18:48.275Z,8.37
2022-11-27T22:21:16.003Z,8.83
2022-11-27T22:23:43.590Z,8.67
2022-11-27T22:26:13.073Z,8.73
2022-11-27T22:28:42.739Z,8.27
2022-11-27T22:31:17.157Z,7.73
2022-11-27T22:33:44.985Z,8.17
2022-11-27T22:36:14.972Z,8.30
2022-11-27T22:38:42.916Z,7.97
2022-11-27T22:41:47.615Z,8.70
2022-11-27T22:44:20.875Z,8.13
2022-11-27T22:46:48.865Z,7.60
2022-11-27T22:49:17.756Z,8.30
2022-11-27T22:51:44.962Z,8.03
2022-11-27T22:54:15.115Z,8.10
2022-11-27T22:56:45.504Z,8.30
2022-11-27T23:02:00.003Z,8.43
2022-11-27T23:04:27.035Z,8.77
2022-11-27T23:06:53.909Z,8.57
2022-11-27T23:09:20.680Z,8.13
2022-11-27T23:11:47.422Z,8.60
2022-11-27T23:14:13.997Z,8.23
2022-11-27T23:16:40.639Z,7.40
2022-11-27T23:19:07.407Z,9.00
2022-11-27T23:21:37.266Z,9.03
2022-11-27T23:24:05.021Z,7.90
2022-11-27T23:26:32.204Z,8.67
2022-11-27T23:29:01.825Z,10.50
2022-11-27T23:31:35.679Z,10.73
2022-11-27T23:34:05.341Z,12.33
2022-11-27T23:36:32.822Z,9.33
2022-11-27T23:39:00.858Z,8.37
2022-11-27T23:41:27.812Z,8.50
2022-11-27T23:43:54.943Z,8.77
2022-11-27T23:46:25.180Z,9.80
2022-11-27T23:48:54.330Z,8.40
2022-11-27T23:51:25.793Z,8.40
2022-11-27T23:53:53.395Z,9.07
2022-11-27T23:56:26.718Z,7.60
2022-11-27T23:58:57.023Z,7.40
